sensor_id;sensor_type;location;lat;lon;timestamp;P1;durP1;ratioP1;P2;durP2;ratioP2
76749;SDS011;66447;35.844;14.468;2023-04-03T00:04:27;6.33;;;1.97;;
76749;SDS011;66447;35.844;14.468;2023-04-03T00:19:28;10.50;;;1.50;;
76749;SDS011;66447;35.844;14.468;2023-04-03T00:34:29;6.87;;;1.30;;
76749;SDS011;66447;35.844;14.468;2023-04-03T00:49:30;3.60;;;1.03;;
76749;SDS011;66447;35.844;14.468;2023-04-03T01:04:33;7.23;;;1.17;;
76749;SDS011;66447;35.844;14.468;2023-04-03T01:19:38;10.25;;;1.42;;
76749;SDS011;66447;35.844;14.468;2023-04-03T01:34:47;10.73;;;1.00;;
76749;SDS011;66447;35.844;14.468;2023-04-03T01:49:48;11.73;;;2.13;;
76749;SDS011;66447;35.844;14.468;2023-04-03T02:04:49;8.40;;;1.70;;
76749;SDS011;66447;35.844;14.468;2023-04-03T02:19:51;19.73;;;1.77;;
76749;SDS011;66447;35.844;14.468;2023-04-03T02:34:52;9.27;;;1.50;;
76749;SDS011;66447;35.844;14.468;2023-04-03T02:49:53;10.37;;;1.27;;
76749;SDS011;66447;35.844;14.468;2023-04-03T03:04:54;12.23;;;1.73;;
76749;SDS011;66447;35.844;14.468;2023-04-03T03:19:55;15.20;;;1.87;;
76749;SDS011;66447;35.844;14.468;2023-04-03T03:34:56;9.07;;;1.27;;
76749;SDS011;66447;35.844;14.468;2023-04-03T03:49:57;10.83;;;1.47;;
76749;SDS011;66447;35.844;14.468;2023-04-03T04:04:59;16.00;;;2.60;;
76749;SDS011;66447;35.844;14.468;2023-04-03T04:20:00;10.30;;;1.80;;
76749;SDS011;66447;35.844;14.468;2023-04-03T04:35:03;8.93;;;1.50;;
76749;SDS011;66447;35.844;14.468;2023-04-03T04:50:05;9.50;;;1.45;;
76749;SDS011;66447;35.844;14.468;2023-04-03T05:05:06;8.00;;;1.13;;
76749;SDS011;66447;35.844;14.468;2023-04-03T05:20:08;8.43;;;1.13;;
76749;SDS011;66447;35.844;14.468;2023-04-03T05:35:10;9.70;;;1.13;;
76749;SDS011;66447;35.844;14.468;2023-04-03T05:50:11;10.03;;;1.57;;
76749;SDS011;66447;35.844;14.468;2023-04-03T06:05:13;8.83;;;1.70;;
76749;SDS011;66447;35.844;14.468;2023-04-03T06:20:14;7.83;;;1.27;;
76749;SDS011;66447;35.844;14.468;2023-04-03T06:35:16;5.07;;;0.80;;
76749;SDS011;66447;35.844;14.468;2023-04-03T06:50:17;4.93;;;1.20;;
76749;SDS011;66447;35.844;14.468;2023-04-03T07:05:19;7.30;;;1.40;;
76749;SDS011;66447;35.844;14.468;2023-04-03T07:20:21;4.45;;;1.30;;
76749;SDS011;66447;35.844;14.468;2023-04-03T07:35:22;2.92;;;0.80;;
76749;SDS011;66447;35.844;14.468;2023-04-03T07:50:23;6.35;;;1.10;;
76749;SDS011;66447;35.844;14.468;2023-04-03T08:05:25;4.93;;;1.08;;
76749;SDS011;66447;35.844;14.468;2023-04-03T08:20:27;3.67;;;1.10;;
76749;SDS011;66447;35.844;14.468;2023-04-03T08:35:29;10.60;;;1.65;;
76749;SDS011;66447;35.844;14.468;2023-04-03T08:50:31;6.72;;;1.35;;
76749;SDS011;66447;35.844;14.468;2023-04-03T09:20:42;8.45;;;1.05;;
76749;SDS011;66447;35.844;14.468;2023-04-03T09:35:45;7.05;;;1.50;;
76749;SDS011;66447;35.844;14.468;2023-04-03T10:06:04;3.63;;;1.17;;
76749;SDS011;66447;35.844;14.468;2023-04-03T10:21:35;4.65;;;1.10;;
76749;SDS011;66447;35.844;14.468;2023-04-03T10:36:58;7.18;;;1.23;;
76749;SDS011;66447;35.844;14.468;2023-04-03T11:07:42;6.90;;;0.75;;
76749;SDS011;66447;35.844;14.468;2023-04-03T11:22:52;2.72;;;0.80;;
76749;SDS011;66447;35.844;14.468;2023-04-03T11:37:59;4.35;;;1.13;;
76749;SDS011;66447;35.844;14.468;2023-04-03T11:53:10;3.33;;;1.10;;
76749;SDS011;66447;35.844;14.468;2023-04-03T12:23:34;1.30;;;0.60;;
76749;SDS011;66447;35.844;14.468;2023-04-03T12:38:46;5.78;;;1.10;;
76749;SDS011;66447;35.844;14.468;2023-04-03T12:54:03;4.30;;;1.00;;
76749;SDS011;66447;35.844;14.468;2023-04-03T13:24:28;5.63;;;1.15;;
76749;SDS011;66447;35.844;14.468;2023-04-03T13:39:33;11.70;;;1.75;;
76749;SDS011;66447;35.844;14.468;2023-04-03T13:54:38;5.63;;;1.40;;
76749;SDS011;66447;35.844;14.468;2023-04-03T14:09:40;10.90;;;2.30;;
76749;SDS011;66447;35.844;14.468;2023-04-03T14:24:41;12.70;;;2.83;;
76749;SDS011;66447;35.844;14.468;2023-04-03T14:39:44;14.38;;;2.45;;
76749;SDS011;66447;35.844;14.468;2023-04-03T14:54:46;19.33;;;3.80;;
76749;SDS011;66447;35.844;14.468;2023-04-03T15:09:49;18.25;;;2.83;;
76749;SDS011;66447;35.844;14.468;2023-04-03T15:24:50;18.42;;;3.10;;
76749;SDS011;66447;35.844;14.468;2023-04-03T15:39:52;14.95;;;3.15;;
76749;SDS011;66447;35.844;14.468;2023-04-03T16:09:54;14.02;;;3.72;;
76749;SDS011;66447;35.844;14.468;2023-04-03T16:24:55;27.17;;;4.50;;
76749;SDS011;66447;35.844;14.468;2023-04-03T16:54:58;28.20;;;4.47;;
76749;SDS011;66447;35.844;14.468;2023-04-03T17:09:59;24.93;;;4.20;;
76749;SDS011;66447;35.844;14.468;2023-04-03T17:25:00;25.77;;;4.97;;
76749;SDS011;66447;35.844;14.468;2023-04-03T17:55:09;20.17;;;4.47;;
76749;SDS011;66447;35.844;14.468;2023-04-03T18:10:42;23.85;;;4.57;;
76749;SDS011;66447;35.844;14.468;2023-04-03T18:25:43;21.87;;;3.87;;
76749;SDS011;66447;35.844;14.468;2023-04-03T18:40:45;27.30;;;3.85;;
76749;SDS011;66447;35.844;14.468;2023-04-03T18:55:49;25.15;;;4.00;;
76749;SDS011;66447;35.844;14.468;2023-04-03T19:10:50;22.43;;;5.10;;
76749;SDS011;66447;35.844;14.468;2023-04-03T19:26:04;24.40;;;4.00;;
76749;SDS011;66447;35.844;14.468;2023-04-03T19:41:11;18.35;;;3.53;;
76749;SDS011;66447;35.844;14.468;2023-04-03T19:56:14;22.80;;;4.00;;
76749;SDS011;66447;35.844;14.468;2023-04-03T20:11:16;40.28;;;5.63;;
76749;SDS011;66447;35.844;14.468;2023-04-03T20:26:20;22.07;;;5.07;;
76749;SDS011;66447;35.844;14.468;2023-04-03T20:41:23;22.50;;;3.92;;
76749;SDS011;66447;35.844;14.468;2023-04-03T20:56:27;17.80;;;4.38;;
76749;SDS011;66447;35.844;14.468;2023-04-03T21:27:11;18.60;;;3.90;;
76749;SDS011;66447;35.844;14.468;2023-04-03T21:42:12;34.77;;;5.00;;
76749;SDS011;66447;35.844;14.468;2023-04-03T21:57:13;23.03;;;4.97;;
76749;SDS011;66447;35.844;14.468;2023-04-03T22:12:14;30.57;;;4.47;;
76749;SDS011;66447;35.844;14.468;2023-04-03T22:27:15;24.90;;;4.33;;
76749;SDS011;66447;35.844;14.468;2023-04-03T22:42:16;25.87;;;6.83;;
76749;SDS011;66447;35.844;14.468;2023-04-03T22:57:17;21.63;;;5.13;;
76749;SDS011;66447;35.844;14.468;2023-04-03T23:12:18;25.77;;;4.23;;
76749;SDS011;66447;35.844;14.468;2023-04-03T23:27:19;21.33;;;4.77;;
76749;SDS011;66447;35.844;14.468;2023-04-03T23:42:21;17.80;;;3.50;;
76749;SDS011;66447;35.844;14.468;2023-04-03T23:57:22;16.13;;;3.83;;
